Time;durP1;ratioP1;P1;durP2;ratioP2;P2;SDS_P1;SDS_P2;PMS_P1;PMS_P2;Temp;Humidity;BMP_temperature;BMP_pressure;BME280_temperature;BME280_humidity;BME280_pressure;Samples;Min_cycle;Max_cycle;Signal;HPM_P1;HPM_P2
2021/12/17 00:07:01;;;;;;;35.60;21.25;;;7.20;95.00;;;;;;5030288;28;20037;-72
2021/12/17 00:09:27;;;;;;;32.67;20.40;;;7.10;95.10;;;;;;5046024;28;20492;-71
2021/12/17 00:11:53;;;;;;;34.50;20.48;;;7.10;95.10;;;;;;5032355;28;20030;-72
2021/12/17 00:14:27;;;;;;;33.03;20.95;;;7.00;95.10;;;;;;5035935;28;20025;-72
2021/12/17 00:16:57;;;;;;;30.70;19.55;;;7.00;95.10;;;;;;5037126;28;20112;-71
2021/12/17 00:19:51;;;;;;;32.35;19.80;;;6.90;95.10;;;;;;5029550;28;20078;-72
2021/12/17 00:49:19;;;;;;;29.58;17.60;;;6.20;95.40;;;;;;5029461;28;20489;-72
2021/12/17 00:51:56;;;;;;;33.28;19.60;;;6.10;95.40;;;;;;5029299;28;20393;-72
2021/12/17 00:54:36;;;;;;;38.17;21.77;;;6.00;95.50;;;;;;5030580;28;20029;-71
2021/12/17 00:57:12;;;;;;;34.23;21.00;;;6.00;95.70;;;;;;5026768;28;20053;-71
2021/12/17 00:59:38;;;;;;;38.58;22.40;;;6.00;95.80;;;;;;5027448;28;20372;-72
2021/12/17 01:02:09;;;;;;;34.55;20.92;;;5.90;96.00;;;;;;5028475;28;20044;-71
2021/12/17 01:04:38;;;;;;;38.85;22.17;;;5.90;96.20;;;;;;5024493;28;20516;-71
2021/12/17 01:07:07;;;;;;;33.15;19.17;;;5.90;96.30;;;;;;5021700;28;20112;-72
2021/12/17 01:09:37;;;;;;;36.85;21.73;;;5.90;96.40;;;;;;5029665;28;20033;-72
2021/12/17 01:12:08;;;;;;;40.17;21.23;;;5.90;96.30;;;;;;5030558;28;20024;-71
2021/12/17 01:14:37;;;;;;;;;;;5.80;96.30;;;;;;5029468;28;20627;-71
2021/12/17 01:17:10;;;;;;;34.33;20.55;;;5.90;96.40;;;;;;5028455;28;19909;-71
2021/12/17 01:23:00;;;;;;;30.70;18.40;;;5.80;96.60;;;;;;5028817;28;20044;-72
2021/12/17 01:36:30;;;;;;;34.35;19.50;;;5.60;96.50;;;;;;5026203;28;20143;-72
2021/12/17 01:44:16;;;;;;;32.50;18.73;;;5.60;96.60;;;;;;5025504;28;20029;-71
2021/12/17 01:46:44;;;;;;;33.88;19.55;;;5.50;96.50;;;;;;5027700;28;20432;-71
2021/12/17 01:49:27;;;;;;;33.80;18.70;;;5.50;96.50;;;;;;5025516;28;20671;-71
2021/12/17 02:00:14;;;;;;;32.53;20.00;;;5.40;96.50;;;;;;5028693;28;20643;-71
2021/12/17 02:02:46;;;;;;;32.70;18.73;;;5.30;96.40;;;;;;5025644;28;20041;-71
2021/12/17 02:05:13;;;;;;;34.17;19.58;;;5.30;96.50;;;;;;5030586;28;20021;-71
2021/12/17 02:07:41;;;;;;;36.50;20.45;;;5.30;96.50;;;;;;5018907;28;20045;-71
2021/12/17 02:19:41;;;;;;;40.42;22.25;;;5.20;96.70;;;;;;5018861;28;20056;-71
2021/12/17 02:31:47;;;;;;;40.00;20.45;;;5.10;97.00;;;;;;5027992;28;20112;-71
2021/12/17 02:34:41;;;;;;;32.17;18.42;;;5.00;97.00;;;;;;5021420;28;20021;-71
2021/12/17 02:37:05;;;;;;;33.88;18.38;;;5.00;97.00;;;;;;5013800;28;20033;-71
2021/12/17 02:47:39;;;;;;;32.97;18.38;;;4.90;97.00;;;;;;5026758;28;20103;-71
2021/12/17 02:50:06;;;;;;;37.13;19.60;;;4.90;97.20;;;;;;5020879;28;20033;-71
2021/12/17 02:52:36;;;;;;;37.45;18.65;;;4.90;97.20;;;;;;5031476;28;20030;-71
2021/12/17 02:55:06;;;;;;;36.60;19.58;;;4.90;97.10;;;;;;5026095;28;20568;-71
2021/12/17 02:57:34;;;;;;;36.50;19.50;;;4.90;97.10;;;;;;5019061;28;20068;-71
2021/12/17 03:00:04;;;;;;;35.22;18.45;;;4.80;97.00;;;;;;5018422;28;20061;-71
2021/12/17 03:02:31;;;;;;;32.45;18.05;;;4.80;97.10;;;;;;5024273;28;20535;-71
2021/12/17 03:04:57;;;;;;;33.90;17.92;;;4.80;97.10;;;;;;5025925;28;20052;-71
2021/12/17 03:07:23;;;;;;;35.17;18.83;;;4.80;97.10;;;;;;5025051;28;20645;-71
2021/12/17 03:10:05;;;;;;;32.97;18.80;;;4.80;97.20;;;;;;5015336;28;20029;-71
2021/12/17 03:12:42;;;;;;;34.72;18.55;;;4.80;97.20;;;;;;5016340;28;20076;-71
2021/12/17 03:15:29;;;;;;;32.65;17.25;;;4.70;97.20;;;;;;5029559;28;20025;-71
2021/12/17 03:23:43;;;;;;;31.20;16.95;;;4.70;97.30;;;;;;5004548;28;20061;-71
2021/12/17 03:26:16;;;;;;;30.83;16.67;;;4.70;97.30;;;;;;4999315;28;20043;-71
2021/12/17 03:28:45;;;;;;;31.65;17.05;;;4.60;97.30;;;;;;4980655;28;20072;-71
2021/12/17 03:31:11;;;;;;;34.50;17.65;;;4.60;97.30;;;;;;4999595;28;20042;-71
2021/12/17 03:33:42;;;;;;;34.20;16.52;;;4.60;97.40;;;;;;5001341;28;20517;-71
2021/12/17 03:36:14;;;;;;;;;;;4.60;97.30;;;;;;4997876;28;20081;-71
2021/12/17 03:38:42;;;;;;;29.55;16.48;;;4.60;97.20;;;;;;5003028;28;20367;-71
2021/12/17 03:43:37;;;;;;;32.95;16.63;;;4.50;97.40;;;;;;5005113;28;20116;-71
2021/12/17 03:46:03;;;;;;;36.47;16.70;;;4.50;97.40;;;;;;4994465;28;20042;-71
2021/12/17 03:48:30;;;;;;;29.92;16.95;;;4.50;97.40;;;;;;5005851;28;20046;-71
2021/12/17 03:50:56;;;;;;;32.20;16.33;;;4.50;97.40;;;;;;5005335;28;20041;-71
2021/12/17 03:53:22;;;;;;;29.50;15.48;;;4.50;97.40;;;;;;4999667;28;20093;-71
2021/12/17 03:55:49;;;;;;;29.75;15.70;;;4.50;97.40;;;;;;4994535;28;20045;-71
2021/12/17 03:58:17;;;;;;;26.38;15.15;;;4.50;97.40;;;;;;5015297;28;20045;-71
2021/12/17 04:00:43;;;;;;;28.10;15.73;;;4.40;97.30;;;;;;5027620;28;20033;-71
2021/12/17 04:03:09;;;;;;;24.90;13.75;;;4.40;97.30;;;;;;5040532;28;20029;-71
2021/12/17 04:05:34;;;;;;;25.33;15.30;;;4.40;97.30;;;;;;5026289;28;20037;-71
2021/12/17 04:08:00;;;;;;;22.00;13.70;;;4.40;97.30;;;;;;5032782;28;20061;-71
2021/12/17 04:10:29;;;;;;;33.20;16.55;;;4.30;97.30;;;;;;5030911;28;20028;-71
2021/12/17 04:13:02;;;;;;;28.20;15.68;;;4.30;97.40;;;;;;5030768;28;20570;-71
2021/12/17 04:15:36;;;;;;;26.83;15.50;;;4.30;97.40;;;;;;5044173;28;20057;-70
2021/12/17 04:18:09;;;;;;;27.70;15.68;;;4.30;97.60;;;;;;5034999;28;20546;-71
2021/12/17 04:20:36;;;;;;;24.50;14.82;;;4.30;97.70;;;;;;5035169;28;20025;-71
2021/12/17 04:23:02;;;;;;;34.58;18.05;;;4.30;97.80;;;;;;5031772;28;20021;-71
2021/12/17 04:25:28;;;;;;;38.20;18.05;;;4.30;97.80;;;;;;5029641;28;20397;-71
2021/12/17 04:27:55;;;;;;;35.30;18.58;;;4.30;97.90;;;;;;5042270;28;20033;-71
2021/12/17 04:30:21;;;;;;;37.80;18.55;;;4.30;98.40;;;;;;5047763;28;20057;-71
2021/12/17 04:32:47;;;;;;;40.45;18.65;;;4.30;98.00;;;;;;5031221;28;20053;-70
2021/12/17 04:35:13;;;;;;;37.42;18.88;;;4.40;98.30;;;;;;5029166;28;20099;-71
2021/12/17 04:37:39;;;;;;;37.67;19.08;;;4.40;98.50;;;;;;5033409;28;20033;-71
2021/12/17 04:40:05;;;;;;;36.65;20.38;;;4.50;98.60;;;;;;5030789;28;20036;-71
2021/12/17 04:44:58;;;;;;;43.45;20.27;;;4.60;98.60;;;;;;5036396;28;20070;-71
2021/12/17 04:57:59;;;;;;;39.80;19.95;;;4.60;98.60;;;;;;5039348;28;20053;-70
2021/12/17 05:00:28;;;;;;;39.30;19.70;;;4.60;98.60;;;;;;5032993;28;20090;-71
2021/12/17 05:02:57;;;;;;;39.33;19.85;;;4.60;98.70;;;;;;5031871;28;20036;-71
2021/12/17 05:05:27;;;;;;;37.80;20.00;;;4.60;98.70;;;;;;5030264;28;20029;-71
2021/12/17 05:07:59;;;;;;;51.72;21.27;;;4.60;98.80;;;;;;5032802;28;20047;-71
2021/12/17 05:18:37;;;;;;;40.65;20.73;;;4.50;98.70;;;;;;5028189;28;20455;-71
2021/12/17 05:21:07;;;;;;;43.58;20.40;;;4.50;98.80;;;;;;5034644;28;20029;-71
2021/12/17 05:23:37;;;;;;;44.35;21.80;;;4.50;98.80;;;;;;5030252;28;20061;-71
2021/12/17 05:26:12;;;;;;;47.60;20.90;;;4.50;98.90;;;;;;5033035;28;20036;-71
2021/12/17 05:28:37;;;;;;;39.35;19.90;;;4.50;99.00;;;;;;5030455;28;20484;-72
2021/12/17 05:31:04;;;;;;;37.25;19.17;;;4.50;99.00;;;;;;5030607;28;20106;-71
2021/12/17 05:33:30;;;;;;;40.58;21.45;;;4.50;99.00;;;;;;5034554;28;20473;-71
2021/12/17 05:35:59;;;;;;;37.47;19.48;;;4.50;99.00;;;;;;5033620;28;20025;-72
2021/12/17 05:38:27;;;;;;;36.22;19.90;;;4.50;99.00;;;;;;5033871;28;20377;-73
2021/12/17 05:40:53;;;;;;;41.28;20.77;;;4.50;99.00;;;;;;5035375;28;20029;-73
2021/12/17 05:43:19;;;;;;;45.90;21.75;;;4.50;99.00;;;;;;5030258;28;20120;-71
2021/12/17 05:48:17;;;;;;;49.03;22.15;;;4.50;99.10;;;;;;5037636;28;20053;-70
2021/12/17 05:50:45;;;;;;;40.03;20.13;;;4.50;99.10;;;;;;5027817;28;20057;-72
2021/12/17 05:53:11;;;;;;;39.67;19.77;;;4.50;99.10;;;;;;5028332;28;20555;-72
2021/12/17 05:55:37;;;;;;;38.03;20.20;;;4.50;99.20;;;;;;5022735;28;20108;-71
2021/12/17 05:58:05;;;;;;;40.97;20.42;;;4.50;99.10;;;;;;5028366;28;20121;-72
2021/12/17 06:00:31;;;;;;;36.80;18.95;;;4.50;99.10;;;;;;5036366;28;20048;-67
2021/12/17 06:02:59;;;;;;;48.42;21.20;;;4.50;99.10;;;;;;5029008;28;20057;-73
2021/12/17 06:05:26;;;;;;;41.22;20.50;;;4.50;99.10;;;;;;5028825;28;20029;-72
2021/12/17 06:07:53;;;;;;;40.20;20.77;;;4.50;99.20;;;;;;5039154;28;20025;-72
2021/12/17 06:10:19;;;;;;;41.00;20.75;;;4.50;99.10;;;;;;5037534;28;20550;-71
2021/12/17 06:12:45;;;;;;;38.88;20.65;;;4.40;99.00;;;;;;5025763;28;20022;-72
2021/12/17 06:15:13;;;;;;;40.65;19.42;;;4.40;99.00;;;;;;5033217;28;20037;-72
2021/12/17 06:17:40;;;;;;;41.53;19.25;;;4.40;99.00;;;;;;5028106;28;20034;-72
2021/12/17 06:20:07;;;;;;;31.70;17.38;;;4.30;99.00;;;;;;5028824;28;20033;-72
2021/12/17 06:22:33;;;;;;;34.58;17.30;;;4.30;99.00;;;;;;5027991;28;20129;-72
2021/12/17 06:24:59;;;;;;;38.40;19.35;;;4.30;99.00;;;;;;5030954;28;20107;-73
2021/12/17 06:27:25;;;;;;;39.08;19.35;;;4.30;99.30;;;;;;5030296;28;20025;-73
2021/12/17 06:29:52;;;;;;;49.88;24.25;;;4.30;98.90;;;;;;5028094;28;20519;-72
2021/12/17 06:32:20;;;;;;;42.38;21.08;;;4.20;98.90;;;;;;5028743;28;20028;-72
2021/12/17 06:34:46;;;;;;;42.90;22.00;;;4.20;98.90;;;;;;5025443;28;20025;-72
2021/12/17 06:37:15;;;;;;;46.75;22.65;;;4.20;99.00;;;;;;5035007;28;20100;-73
2021/12/17 06:39:41;;;;;;;40.45;20.65;;;4.20;99.10;;;;;;5028129;28;20026;-72
2021/12/17 06:42:07;;;;;;;40.78;20.48;;;4.20;99.10;;;;;;5036091;28;21846;-72
2021/12/17 06:44:33;;;;;;;46.28;22.00;;;4.20;99.10;;;;;;5031890;28;20029;-72
2021/12/17 06:47:25;;;;;;;46.15;21.77;;;4.20;99.10;;;;;;5030861;28;20231;-73
2021/12/17 06:50:00;;;;;;;48.03;21.70;;;4.20;99.10;;;;;;5026863;28;20128;-72
2021/12/17 06:58:33;;;;;;;46.13;19.67;;;4.10;99.20;;;;;;5028802;28;20026;-72
2021/12/17 07:05:54;;;;;;;41.45;19.25;;;4.10;99.10;;;;;;5026543;28;20087;-72
2021/12/17 07:10:47;;;;;;;44.58;21.98;;;4.10;99.10;;;;;;5026738;28;20020;-72
2021/12/17 07:34:20;;;;;;;53.15;25.02;;;4.80;99.90;;;;;;5026607;28;20029;-72
2021/12/17 07:39:18;;;;;;;50.53;23.17;;;4.80;99.90;;;;;;5041688;28;20396;-72
2021/12/17 07:41:44;;;;;;;51.83;24.85;;;4.90;99.90;;;;;;5030710;28;20512;-73
2021/12/17 07:44:10;;;;;;;50.85;23.90;;;5.00;99.90;;;;;;5038369;28;20069;-72
2021/12/17 07:46:36;;;;;;;47.97;22.67;;;5.10;99.90;;;;;;5031230;28;20123;-72
2021/12/17 07:49:02;;;;;;;51.65;24.02;;;5.20;99.90;;;;;;5032933;28;20550;-72
2021/12/17 07:51:28;;;;;;;46.97;23.70;;;5.20;99.90;;;;;;5032342;28;20025;-72
2021/12/17 07:53:54;;;;;;;49.67;23.20;;;5.30;99.90;;;;;;5024101;28;20030;-72
2021/12/17 07:56:30;;;;;;;49.28;25.02;;;5.30;99.90;;;;;;5025551;28;20026;-72
2021/12/17 07:58:56;;;;;;;49.95;22.88;;;5.40;99.90;;;;;;5029660;28;20042;-72
2021/12/17 08:01:22;;;;;;;50.95;24.85;;;5.40;99.90;;;;;;5030548;28;20014;-72
2021/12/17 08:03:48;;;;;;;46.85;23.23;;;5.50;99.90;;;;;;5030863;28;20516;-72
2021/12/17 08:06:14;;;;;;;49.35;22.83;;;5.50;99.80;;;;;;5033382;28;20091;-72
2021/12/17 08:08:39;;;;;;;51.33;23.77;;;5.60;99.70;;;;;;5029775;28;20045;-72
2021/12/17 08:11:06;;;;;;;46.88;24.80;;;5.60;99.60;;;;;;5029847;28;20025;-72
2021/12/17 08:13:34;;;;;;;48.05;24.30;;;5.80;99.90;;;;;;5029879;28;20061;-72
2021/12/17 08:31:31;;;;;;;31.80;19.02;;;8.90;93.70;;;;;;5029447;28;20056;-72
2021/12/17 08:33:58;;;;;;;32.20;18.83;;;9.50;92.50;;;;;;5029178;28;20030;-72
2021/12/17 08:36:24;;;;;;;31.00;18.85;;;10.10;91.50;;;;;;5032836;28;20621;-73
2021/12/17 08:38:50;;;;;;;31.52;19.88;;;10.70;90.50;;;;;;5030587;28;20075;-73
2021/12/17 08:41:18;;;;;;;29.50;18.95;;;11.20;87.70;;;;;;5029027;28;20033;-72
2021/12/17 08:43:44;;;;;;;28.05;18.80;;;11.70;86.30;;;;;;5029499;28;20041;-73
2021/12/17 08:46:10;;;;;;;30.17;19.83;;;12.20;82.60;;;;;;5030939;28;20136;-73
2021/12/17 08:48:37;;;;;;;28.08;19.55;;;12.70;81.40;;;;;;5031191;28;20076;-72
2021/12/17 08:51:06;;;;;;;28.38;18.27;;;13.10;80.70;;;;;;5031361;28;20026;-74
2021/12/17 08:53:33;;;;;;;32.53;20.50;;;13.50;77.60;;;;;;5028754;28;20168;-73
2021/12/17 08:55:58;;;;;;;30.92;20.85;;;13.60;77.30;;;;;;5028676;28;20021;-73
2021/12/17 08:58:24;;;;;;;30.77;20.52;;;13.80;78.50;;;;;;5029182;28;20409;-74
2021/12/17 09:00:50;;;;;;;29.42;20.67;;;14.10;78.00;;;;;;5024976;28;20492;-74
2021/12/17 09:03:16;;;;;;;26.42;18.92;;;14.50;75.00;;;;;;5032341;28;20104;-73
2021/12/17 09:05:45;;;;;;;30.23;21.67;;;15.10;72.60;;;;;;5028768;28;20022;-74
2021/12/17 09:08:11;;;;;;;28.85;22.73;;;15.60;70.60;;;;;;5028882;28;20044;-74
2021/12/17 09:10:38;;;;;;;28.52;22.83;;;16.10;69.20;;;;;;5028625;28;20028;-74
2021/12/17 09:13:05;;;;;;;30.27;20.38;;;15.80;69.80;;;;;;5029125;28;20022;-74
2021/12/17 09:15:31;;;;;;;30.88;19.70;;;14.60;72.50;;;;;;5031331;28;20100;-74
2021/12/17 09:17:57;;;;;;;31.77;20.40;;;13.70;74.70;;;;;;5031429;28;20160;-73
2021/12/17 09:20:23;;;;;;;35.35;20.42;;;12.90;75.20;;;;;;5025018;28;20036;-74
2021/12/17 09:22:49;;;;;;;33.50;19.88;;;12.30;79.10;;;;;;5026871;28;20028;-73
2021/12/17 09:25:15;;;;;;;30.83;19.48;;;11.80;80.50;;;;;;5028694;28;20033;-73
2021/12/17 09:27:41;;;;;;;30.75;20.35;;;11.40;81.10;;;;;;5029749;28;20053;-74
2021/12/17 09:30:14;;;;;;;29.95;19.95;;;11.00;83.40;;;;;;5027588;28;20166;-73
2021/12/17 09:32:40;;;;;;;31.33;19.25;;;10.70;83.70;;;;;;5028201;28;20421;-73
2021/12/17 09:35:08;;;;;;;33.50;20.38;;;10.50;84.90;;;;;;5032763;28;20480;-73
2021/12/17 09:37:34;;;;;;;32.63;19.05;;;10.30;85.70;;;;;;5029436;28;20032;-73
2021/12/17 09:40:00;;;;;;;33.70;19.48;;;10.10;86.40;;;;;;5028181;28;20025;-73
2021/12/17 09:42:27;;;;;;;33.92;19.92;;;10.10;87.30;;;;;;5031456;28;20042;-73
2021/12/17 09:44:53;;;;;;;35.47;20.70;;;10.00;87.30;;;;;;5029114;28;20049;-72
2021/12/17 09:47:18;;;;;;;32.03;18.35;;;9.90;88.60;;;;;;5029785;28;20077;-74
2021/12/17 09:49:45;;;;;;;33.05;19.73;;;9.90;88.20;;;;;;5033569;28;20085;-74
2021/12/17 09:52:11;;;;;;;35.40;20.45;;;9.80;89.50;;;;;;5037278;28;20239;-74
2021/12/17 09:54:37;;;;;;;33.40;19.27;;;9.80;90.00;;;;;;5032481;28;20108;-73
2021/12/17 09:57:04;;;;;;;33.22;19.95;;;9.80;90.20;;;;;;5029786;28;20104;-73
2021/12/17 09:59:30;;;;;;;33.05;18.92;;;9.80;90.10;;;;;;5030059;28;20022;-73
2021/12/17 10:01:56;;;;;;;33.92;19.77;;;9.80;90.00;;;;;;5027637;28;20084;-72
2021/12/17 10:04:27;;;;;;;31.40;18.67;;;9.80;90.00;;;;;;5027004;28;20030;-73
2021/12/17 10:07:09;;;;;;;31.90;19.02;;;9.80;90.30;;;;;;5012514;28;20030;-73
2021/12/17 10:09:35;;;;;;;30.02;18.70;;;9.90;90.00;;;;;;5029608;28;20068;-73
2021/12/17 10:12:02;;;;;;;29.45;17.42;;;9.90;90.00;;;;;;5028961;28;20080;-72
2021/12/17 10:14:29;;;;;;;34.55;19.80;;;9.90;89.90;;;;;;5027750;28;20029;-73
2021/12/17 10:17:27;;;;;;;31.67;18.30;;;10.00;89.30;;;;;;5029667;28;20026;-73
2021/12/17 10:19:56;;;;;;;30.48;18.13;;;10.10;89.60;;;;;;5028077;28;20052;-73
2021/12/17 10:22:23;;;;;;;34.05;19.27;;;10.20;89.20;;;;;;5027572;28;20045;-73
2021/12/17 10:25:05;;;;;;;31.80;19.27;;;10.30;88.50;;;;;;5027725;28;20505;-73
2021/12/17 10:27:34;;;;;;;31.33;19.08;;;10.50;88.40;;;;;;5025068;28;20532;-73
2021/12/17 10:30:19;;;;;;;34.42;21.38;;;11.00;87.10;;;;;;5019170;28;20544;-75
2021/12/17 10:32:50;;;;;;;30.67;22.70;;;12.30;83.90;;;;;;5025850;28;20540;-74
2021/12/17 10:35:28;;;;;;;32.33;24.80;;;14.70;75.00;;;;;;5023534;28;20113;-74
2021/12/17 10:38:02;;;;;;;27.38;21.52;;;16.90;66.50;;;;;;5027328;28;20061;-75
2021/12/17 10:40:51;;;;;;;28.85;25.77;;;17.90;58.40;;;;;;5032900;28;20045;-73
2021/12/17 10:43:24;;;;;;;29.23;25.80;;;18.90;57.20;;;;;;5026427;28;20535;-75
2021/12/17 10:46:07;;;;;;;28.60;24.25;;;20.40;53.20;;;;;;5012114;28;20037;-74
2021/12/17 10:51:32;;;;;;;28.77;25.58;;;22.50;47.60;;;;;;5024164;28;20057;-74
2021/12/17 10:54:05;;;;;;;26.15;23.45;;;23.30;45.00;;;;;;5037916;28;20120;-75
2021/12/17 10:56:34;;;;;;;25.25;21.77;;;23.90;44.90;;;;;;5028012;28;20121;-75
2021/12/17 10:59:10;;;;;;;24.80;21.63;;;24.50;41.50;;;;;;5027271;28;20029;-75
2021/12/17 11:01:48;;;;;;;25.95;20.98;;;24.80;40.30;;;;;;5027992;28;20030;-75
2021/12/17 11:04:31;;;;;;;24.13;21.52;;;25.30;41.70;;;;;;5031998;28;20519;-75
2021/12/17 11:07:02;;;;;;;22.30;19.90;;;25.90;40.60;;;;;;5029199;28;20113;-74
2021/12/17 11:09:35;;;;;;;23.20;19.17;;;26.20;38.90;;;;;;5030486;28;20075;-75
2021/12/17 11:12:20;;;;;;;20.60;18.13;;;26.30;38.00;;;;;;5029556;28;20034;-74
2021/12/17 11:14:47;;;;;;;21.60;18.63;;;26.70;37.80;;;;;;5026731;28;20049;-75
2021/12/17 11:17:14;;;;;;;21.55;19.25;;;26.60;34.80;;;;;;5030885;28;20080;-75
2021/12/17 11:19:41;;;;;;;24.20;21.80;;;26.70;35.80;;;;;;5039277;28;20052;-75
2021/12/17 11:22:08;;;;;;;20.50;18.40;;;26.80;33.60;;;;;;5041522;28;20026;-75
2021/12/17 11:24:35;;;;;;;25.25;19.48;;;26.80;36.00;;;;;;5047897;28;20030;-77
2021/12/17 11:27:03;;;;;;;23.35;20.95;;;26.90;36.00;;;;;;5038494;28;20116;-76
2021/12/17 11:29:29;;;;;;;23.92;21.42;;;27.10;35.00;;;;;;5033327;28;20037;-76
2021/12/17 11:31:55;;;;;;;21.98;19.75;;;27.00;34.10;;;;;;5035277;28;20033;-76
2021/12/17 11:34:21;;;;;;;30.00;27.33;;;27.20;33.90;;;;;;5034713;28;20080;-76
2021/12/17 11:36:47;;;;;;;23.23;20.90;;;27.50;32.20;;;;;;5032811;28;20104;-76
2021/12/17 11:39:21;;;;;;;22.08;19.77;;;27.90;33.30;;;;;;5034122;28;20111;-76
2021/12/17 11:42:18;;;;;;;21.45;19.35;;;28.00;33.10;;;;;;5032607;28;20082;-76
2021/12/17 11:44:53;;;;;;;20.35;18.17;;;28.10;31.00;;;;;;5050551;28;20029;-76
2021/12/17 11:47:20;;;;;;;18.27;16.38;;;28.10;30.70;;;;;;5045543;28;20037;-76
2021/12/17 11:49:50;;;;;;;18.48;16.45;;;28.20;30.70;;;;;;5027580;28;20144;-76
2021/12/17 11:52:42;;;;;;;19.27;16.88;;;28.30;29.80;;;;;;5047584;28;20029;-76
2021/12/17 11:55:34;;;;;;;17.83;15.93;;;28.10;29.90;;;;;;5036324;28;20033;-76
2021/12/17 11:58:07;;;;;;;17.13;14.63;;;26.90;31.00;;;;;;5037516;28;20021;-76
2021/12/17 12:00:53;;;;;;;17.55;14.43;;;26.30;31.80;;;;;;5045167;28;20021;-76
2021/12/17 12:03:21;;;;;;;17.27;14.65;;;26.10;32.90;;;;;;5048447;28;20142;-75
2021/12/17 12:05:52;;;;;;;17.08;15.25;;;26.60;31.90;;;;;;5049556;28;20040;-76
2021/12/17 12:08:50;;;;;;;20.35;15.63;;;26.70;31.60;;;;;;5048927;28;20048;-76
2021/12/17 12:11:22;;;;;;;17.48;14.90;;;27.00;31.20;;;;;;5049306;28;20477;-74
2021/12/17 12:13:53;;;;;;;17.58;15.60;;;27.20;31.00;;;;;;5049890;28;20025;-76
2021/12/17 12:16:25;;;;;;;18.58;15.48;;;27.50;30.60;;;;;;5033429;28;20384;-76
2021/12/17 12:18:55;;;;;;;44.17;37.85;;;27.60;30.10;;;;;;5048394;28;20044;-76
2021/12/17 12:21:23;;;;;;;19.10;17.05;;;27.70;30.10;;;;;;5042396;28;20080;-75
2021/12/17 12:24:11;;;;;;;20.77;17.60;;;27.70;30.20;;;;;;5030985;28;20029;-76
2021/12/17 12:26:45;;;;;;;48.35;41.90;;;27.20;31.20;;;;;;5030627;28;20052;-75
2021/12/17 12:29:22;;;;;;;24.27;19.55;;;25.40;33.30;;;;;;5027797;28;20485;-75
2021/12/17 12:31:55;;;;;;;25.20;20.88;;;23.70;35.80;;;;;;5031433;28;20487;-75
2021/12/17 12:34:30;;;;;;;41.58;32.35;;;22.50;37.80;;;;;;5019507;28;20504;-75
2021/12/17 12:37:07;;;;;;;25.15;20.50;;;21.40;39.70;;;;;;5018257;28;20032;-75
2021/12/17 12:39:50;;;;;;;24.67;19.77;;;20.40;41.80;;;;;;5033025;28;20501;-75
2021/12/17 12:42:22;;;;;;;23.50;16.98;;;19.40;44.20;;;;;;5033198;28;20122;-74
2021/12/17 12:44:49;;;;;;;33.95;27.55;;;18.60;46.40;;;;;;5033700;28;20041;-74
2021/12/17 12:47:35;;;;;;;22.90;18.08;;;18.20;48.10;;;;;;5034577;28;20420;-74
2021/12/17 12:50:04;;;;;;;24.20;18.65;;;17.80;49.20;;;;;;5024911;28;20084;-74
2021/12/17 12:52:45;;;;;;;21.52;16.23;;;17.30;50.60;;;;;;5041050;28;20032;-74
2021/12/17 12:55:14;;;;;;;23.08;16.70;;;16.90;51.60;;;;;;5031660;28;20392;-74
2021/12/17 12:57:46;;;;;;;21.55;15.10;;;16.40;53.00;;;;;;5032322;28;20033;-74
2021/12/17 13:00:20;;;;;;;21.75;15.25;;;15.90;54.80;;;;;;5032332;28;20042;-73
2021/12/17 13:02:50;;;;;;;19.80;13.25;;;15.50;56.30;;;;;;5033509;28;20033;-73
2021/12/17 13:05:17;;;;;;;19.38;14.45;;;15.20;57.60;;;;;;5031287;28;20509;-72
2021/12/17 13:07:44;;;;;;;14.82;9.57;;;15.00;58.70;;;;;;5030237;28;20040;-73
2021/12/17 13:10:25;;;;;;;22.08;16.35;;;15.50;57.30;;;;;;5031593;28;20025;-74
2021/12/17 13:13:20;;;;;;;;;;;16.00;56.50;;;;;;5017793;28;20044;-73
2021/12/17 13:16:42;;;;;;;24.38;16.70;;;15.70;56.60;;;;;;5028107;28;19952;-74
2021/12/17 13:26:35;;;;;;;22.40;15.52;;;15.00;59.90;;;;;;5030983;28;20037;-73
2021/12/17 13:29:13;;;;;;;20.75;15.07;;;14.80;60.90;;;;;;5030925;28;20057;-73
2021/12/17 13:31:57;;;;;;;29.92;19.90;;;14.50;62.40;;;;;;5029957;28;20079;-73
2021/12/17 13:34:44;;;;;;;21.92;14.82;;;14.40;63.00;;;;;;5030509;28;20096;-73
2021/12/17 13:37:22;;;;;;;26.77;17.58;;;14.10;63.60;;;;;;5030681;28;20603;-73
2021/12/17 13:39:54;;;;;;;27.65;18.50;;;13.90;64.90;;;;;;5027397;28;20034;-73
2021/12/17 13:42:23;;;;;;;33.28;22.40;;;13.70;65.90;;;;;;5029215;28;20013;-73
2021/12/17 13:44:52;;;;;;;23.67;14.18;;;13.60;66.40;;;;;;5029515;28;20025;-73
2021/12/17 13:47:41;;;;;;;39.63;19.95;;;13.40;67.00;;;;;;5034117;28;20090;-73
2021/12/17 13:50:17;;;;;;;20.70;13.63;;;13.20;67.60;;;;;;5030384;28;20484;-72
2021/12/17 13:52:49;;;;;;;19.80;12.60;;;13.10;68.30;;;;;;5035970;28;20467;-73
2021/12/17 13:55:22;;;;;;;23.15;14.18;;;12.90;69.50;;;;;;5028080;28;20025;-73
2021/12/17 13:57:48;;;;;;;29.42;17.25;;;12.90;70.00;;;;;;5027762;28;20030;-72
2021/12/17 14:00:39;;;;;;;21.70;13.02;;;12.70;70.70;;;;;;5031653;28;20033;-73
2021/12/17 14:03:08;;;;;;;31.83;17.47;;;12.70;71.40;;;;;;5033454;28;20030;-73
2021/12/17 14:05:44;;;;;;;22.45;13.85;;;12.50;71.80;;;;;;5032545;28;20789;-73
2021/12/17 14:08:20;;;;;;;28.35;16.25;;;12.40;72.50;;;;;;5032047;28;20061;-72
2021/12/17 14:10:48;;;;;;;25.80;15.57;;;12.30;72.90;;;;;;5027770;28;20191;-72
2021/12/17 14:13:21;;;;;;;22.48;14.40;;;12.20;73.40;;;;;;5028484;28;20832;-72
2021/12/17 14:15:48;;;;;;;22.98;14.05;;;12.20;73.90;;;;;;5030237;28;20025;-73
2021/12/17 14:18:23;;;;;;;30.27;16.92;;;12.10;74.70;;;;;;5031107;28;20041;-73
2021/12/17 14:20:54;;;;;;;22.80;14.10;;;12.10;75.00;;;;;;5035063;28;20024;-72
2021/12/17 14:23:25;;;;;;;25.67;14.45;;;12.00;75.50;;;;;;5029287;28;20439;-71
2021/12/17 14:25:53;;;;;;;;;;;12.00;75.90;;;;;;5028017;28;20055;-72
2021/12/17 14:28:22;;;;;;;19.52;12.00;;;11.90;76.30;;;;;;5038614;28;19912;-73
2021/12/17 14:31:10;;;;;;;20.63;11.68;;;11.80;76.50;;;;;;5028714;28;20108;-73
2021/12/17 14:33:39;;;;;;;23.23;12.57;;;11.70;77.10;;;;;;5027622;28;20098;-72
2021/12/17 14:36:13;;;;;;;25.52;14.65;;;11.70;77.50;;;;;;5031538;28;20021;-72
2021/12/17 14:38:49;;;;;;;18.75;11.10;;;11.60;77.50;;;;;;5034745;28;20043;-71
2021/12/17 14:41:16;;;;;;;13.60;8.02;;;11.60;78.70;;;;;;5031161;28;20099;-72
2021/12/17 14:43:50;;;;;;;21.23;11.68;;;11.50;78.00;;;;;;5028771;28;20091;-72
2021/12/17 14:46:28;;;;;;;19.73;11.80;;;11.50;78.20;;;;;;5033755;28;20116;-70
2021/12/17 15:05:08;;;;;;;23.42;13.63;;;11.30;80.40;;;;;;5023110;28;20401;-72
2021/12/17 15:07:33;;;;;;;24.33;13.57;;;11.30;80.40;;;;;;5026383;28;20512;-72
2021/12/17 15:09:59;;;;;;;25.20;13.77;;;11.30;80.40;;;;;;5030964;28;20069;-72
2021/12/17 15:14:52;;;;;;;33.42;19.27;;;11.20;81.10;;;;;;5027640;28;20038;-72
2021/12/17 15:17:20;;;;;;;26.55;14.45;;;11.20;81.40;;;;;;5027155;28;20018;-71
2021/12/17 15:19:46;;;;;;;33.25;20.77;;;11.10;81.80;;;;;;5026299;28;20033;-72
2021/12/17 15:22:12;;;;;;;25.73;14.32;;;11.00;82.00;;;;;;5026771;28;20513;-72
2021/12/17 15:24:38;;;;;;;29.98;17.80;;;11.00;82.40;;;;;;5028650;28;20049;-72
2021/12/17 15:27:04;;;;;;;27.67;15.57;;;10.90;82.60;;;;;;5028697;28;20057;-72
2021/12/17 15:29:30;;;;;;;24.00;11.95;;;10.90;83.00;;;;;;5026151;28;20025;-72
2021/12/17 15:31:56;;;;;;;26.77;15.35;;;10.80;83.20;;;;;;5026888;28;20022;-72
2021/12/17 15:34:21;;;;;;;27.08;13.25;;;10.70;83.20;;;;;;5026324;28;20072;-72
2021/12/17 15:36:47;;;;;;;26.52;13.30;;;10.70;83.60;;;;;;5027365;28;20030;-72
2021/12/17 15:39:13;;;;;;;26.70;13.95;;;10.70;83.80;;;;;;5029949;28;20034;-72
2021/12/17 15:41:42;;;;;;;22.33;11.57;;;10.60;84.00;;;;;;5026570;28;20029;-72
2021/12/17 15:44:09;;;;;;;24.45;12.82;;;10.60;84.20;;;;;;5026440;28;20033;-72
2021/12/17 15:46:36;;;;;;;22.02;11.48;;;10.60;84.70;;;;;;5026142;28;20030;-72
2021/12/17 15:49:03;;;;;;;24.20;12.93;;;10.50;84.80;;;;;;5026454;28;20037;-72
2021/12/17 15:51:28;;;;;;;20.52;10.00;;;10.50;84.80;;;;;;5028948;28;20025;-72
2021/12/17 15:53:55;;;;;;;22.95;12.48;;;10.50;85.20;;;;;;5029127;28;20033;-72
2021/12/17 15:56:21;;;;;;;24.58;13.38;;;10.40;85.20;;;;;;5026492;28;20021;-72
2021/12/17 15:58:47;;;;;;;23.45;13.43;;;10.40;85.40;;;;;;5026058;28;20048;-72
2021/12/17 16:01:13;;;;;;;23.73;12.45;;;10.30;85.50;;;;;;5025208;28;20029;-72
2021/12/17 16:03:42;;;;;;;24.65;13.75;;;10.30;85.70;;;;;;5031283;28;20113;-72
2021/12/17 16:06:08;;;;;;;25.08;12.82;;;10.30;85.80;;;;;;5034003;28;20052;-73
2021/12/17 16:08:37;;;;;;;25.92;12.73;;;10.30;86.00;;;;;;5029704;28;20036;-73
2021/12/17 16:21:45;;;;;;;25.15;12.85;;;10.20;86.70;;;;;;5032059;28;20079;-71